sensor_id;sensor_type;location;lat;lon;timestamp;P1;durP1;ratioP1;P2;durP2;ratioP2
10985;SDS011;5546;48.714;8.738;2023-04-06T00:00:59;7.23;;;5.33;;
10985;SDS011;5546;48.714;8.738;2023-04-06T00:03:25;8.40;;;5.37;;
10985;SDS011;5546;48.714;8.738;2023-04-06T00:05:51;7.50;;;5.13;;
10985;SDS011;5546;48.714;8.738;2023-04-06T00:08:17;10.83;;;5.90;;
10985;SDS011;5546;48.714;8.738;2023-04-06T00:10:43;8.70;;;5.90;;
10985;SDS011;5546;48.714;8.738;2023-04-06T00:13:09;6.93;;;5.20;;
10985;SDS011;5546;48.714;8.738;2023-04-06T00:15:35;7.57;;;6.13;;
10985;SDS011;5546;48.714;8.738;2023-04-06T00:18:01;6.63;;;5.60;;
10985;SDS011;5546;48.714;8.738;2023-04-06T00:20:27;7.83;;;5.63;;
10985;SDS011;5546;48.714;8.738;2023-04-06T00:22:53;9.70;;;6.20;;
10985;SDS011;5546;48.714;8.738;2023-04-06T00:25:19;7.73;;;5.57;;
10985;SDS011;5546;48.714;8.738;2023-04-06T00:27:45;7.73;;;5.90;;
10985;SDS011;5546;48.714;8.738;2023-04-06T00:30:11;8.70;;;6.13;;
10985;SDS011;5546;48.714;8.738;2023-04-06T00:32:36;8.60;;;5.50;;
10985;SDS011;5546;48.714;8.738;2023-04-06T00:35:02;7.53;;;5.30;;
10985;SDS011;5546;48.714;8.738;2023-04-06T00:37:29;7.30;;;4.90;;
10985;SDS011;5546;48.714;8.738;2023-04-06T00:39:54;7.33;;;5.77;;
10985;SDS011;5546;48.714;8.738;2023-04-06T00:42:20;8.57;;;6.10;;
10985;SDS011;5546;48.714;8.738;2023-04-06T00:44:54;8.27;;;6.43;;
10985;SDS011;5546;48.714;8.738;2023-04-06T00:47:21;7.50;;;6.10;;
10985;SDS011;5546;48.714;8.738;2023-04-06T00:49:47;9.07;;;5.80;;
10985;SDS011;5546;48.714;8.738;2023-04-06T00:52:13;7.83;;;5.40;;
10985;SDS011;5546;48.714;8.738;2023-04-06T00:54:39;6.57;;;5.27;;
10985;SDS011;5546;48.714;8.738;2023-04-06T00:57:05;10.27;;;5.63;;
10985;SDS011;5546;48.714;8.738;2023-04-06T00:59:31;10.93;;;6.60;;
10985;SDS011;5546;48.714;8.738;2023-04-06T01:01:57;9.07;;;5.80;;
10985;SDS011;5546;48.714;8.738;2023-04-06T01:04:23;9.40;;;5.57;;
10985;SDS011;5546;48.714;8.738;2023-04-06T01:06:49;6.80;;;5.73;;
10985;SDS011;5546;48.714;8.738;2023-04-06T01:09:16;7.83;;;6.10;;
10985;SDS011;5546;48.714;8.738;2023-04-06T01:11:42;9.23;;;5.57;;
10985;SDS011;5546;48.714;8.738;2023-04-06T01:14:08;7.23;;;5.87;;
10985;SDS011;5546;48.714;8.738;2023-04-06T01:16:33;10.87;;;5.80;;
10985;SDS011;5546;48.714;8.738;2023-04-06T01:18:59;8.33;;;6.23;;
10985;SDS011;5546;48.714;8.738;2023-04-06T01:21:25;8.70;;;6.17;;
10985;SDS011;5546;48.714;8.738;2023-04-06T01:23:51;6.47;;;5.53;;
10985;SDS011;5546;48.714;8.738;2023-04-06T01:26:17;7.13;;;6.23;;
10985;SDS011;5546;48.714;8.738;2023-04-06T01:28:43;7.83;;;6.17;;
10985;SDS011;5546;48.714;8.738;2023-04-06T01:31:10;7.60;;;5.83;;
10985;SDS011;5546;48.714;8.738;2023-04-06T01:33:35;8.33;;;5.63;;
10985;SDS011;5546;48.714;8.738;2023-04-06T01:36:02;8.57;;;6.23;;
10985;SDS011;5546;48.714;8.738;2023-04-06T01:38:28;9.17;;;6.20;;
10985;SDS011;5546;48.714;8.738;2023-04-06T01:40:54;6.73;;;5.70;;
10985;SDS011;5546;48.714;8.738;2023-04-06T01:43:20;8.37;;;6.03;;
10985;SDS011;5546;48.714;8.738;2023-04-06T01:45:47;7.77;;;5.90;;
10985;SDS011;5546;48.714;8.738;2023-04-06T01:48:12;7.63;;;6.20;;
10985;SDS011;5546;48.714;8.738;2023-04-06T01:50:38;8.73;;;5.93;;
10985;SDS011;5546;48.714;8.738;2023-04-06T01:53:04;8.90;;;5.90;;
10985;SDS011;5546;48.714;8.738;2023-04-06T01:55:30;7.17;;;6.07;;
10985;SDS011;5546;48.714;8.738;2023-04-06T01:57:56;7.33;;;5.77;;
10985;SDS011;5546;48.714;8.738;2023-04-06T02:00:22;6.67;;;5.70;;
10985;SDS011;5546;48.714;8.738;2023-04-06T02:02:48;9.23;;;5.57;;
10985;SDS011;5546;48.714;8.738;2023-04-06T02:05:14;6.03;;;5.37;;
10985;SDS011;5546;48.714;8.738;2023-04-06T02:07:40;8.13;;;5.60;;
10985;SDS011;5546;48.714;8.738;2023-04-06T02:10:10;9.77;;;5.93;;
10985;SDS011;5546;48.714;8.738;2023-04-06T02:12:37;7.90;;;6.20;;
10985;SDS011;5546;48.714;8.738;2023-04-06T02:15:03;7.20;;;6.17;;
10985;SDS011;5546;48.714;8.738;2023-04-06T02:17:29;8.07;;;5.67;;
10985;SDS011;5546;48.714;8.738;2023-04-06T02:19:55;7.73;;;6.27;;
10985;SDS011;5546;48.714;8.738;2023-04-06T02:22:20;7.50;;;6.07;;
10985;SDS011;5546;48.714;8.738;2023-04-06T02:24:46;9.10;;;5.90;;
10985;SDS011;5546;48.714;8.738;2023-04-06T02:27:13;8.43;;;6.33;;
10985;SDS011;5546;48.714;8.738;2023-04-06T02:29:39;8.07;;;5.90;;
10985;SDS011;5546;48.714;8.738;2023-04-06T02:32:05;9.83;;;6.60;;
10985;SDS011;5546;48.714;8.738;2023-04-06T02:34:31;8.13;;;5.50;;
10985;SDS011;5546;48.714;8.738;2023-04-06T02:36:57;7.03;;;5.40;;
10985;SDS011;5546;48.714;8.738;2023-04-06T02:39:22;7.47;;;5.87;;
10985;SDS011;5546;48.714;8.738;2023-04-06T02:41:48;7.90;;;6.10;;
10985;SDS011;5546;48.714;8.738;2023-04-06T02:44:14;9.23;;;5.80;;
10985;SDS011;5546;48.714;8.738;2023-04-06T02:46:40;7.90;;;5.63;;
10985;SDS011;5546;48.714;8.738;2023-04-06T02:49:06;10.23;;;5.20;;
10985;SDS011;5546;48.714;8.738;2023-04-06T02:51:32;8.07;;;6.10;;
10985;SDS011;5546;48.714;8.738;2023-04-06T02:53:58;7.47;;;5.77;;
10985;SDS011;5546;48.714;8.738;2023-04-06T02:56:24;10.23;;;5.60;;
10985;SDS011;5546;48.714;8.738;2023-04-06T02:58:51;8.67;;;5.90;;
10985;SDS011;5546;48.714;8.738;2023-04-06T03:01:17;9.33;;;6.00;;
10985;SDS011;5546;48.714;8.738;2023-04-06T03:03:43;7.37;;;5.80;;
10985;SDS011;5546;48.714;8.738;2023-04-06T03:06:08;10.47;;;5.73;;
10985;SDS011;5546;48.714;8.738;2023-04-06T03:08:35;7.40;;;6.13;;
10985;SDS011;5546;48.714;8.738;2023-04-06T03:11:00;7.40;;;5.87;;
10985;SDS011;5546;48.714;8.738;2023-04-06T03:13:26;7.07;;;5.53;;
10985;SDS011;5546;48.714;8.738;2023-04-06T03:15:52;7.40;;;6.20;;
10985;SDS011;5546;48.714;8.738;2023-04-06T03:18:20;8.93;;;6.23;;
10985;SDS011;5546;48.714;8.738;2023-04-06T03:20:50;8.23;;;6.30;;
10985;SDS011;5546;48.714;8.738;2023-04-06T03:23:18;8.80;;;5.73;;
10985;SDS011;5546;48.714;8.738;2023-04-06T03:25:45;6.87;;;5.73;;
10985;SDS011;5546;48.714;8.738;2023-04-06T03:28:11;7.90;;;6.10;;
10985;SDS011;5546;48.714;8.738;2023-04-06T03:30:37;7.60;;;5.50;;
10985;SDS011;5546;48.714;8.738;2023-04-06T03:33:03;7.33;;;5.70;;
10985;SDS011;5546;48.714;8.738;2023-04-06T03:35:29;9.40;;;6.30;;
10985;SDS011;5546;48.714;8.738;2023-04-06T03:37:54;9.33;;;5.97;;
10985;SDS011;5546;48.714;8.738;2023-04-06T03:40:20;7.40;;;6.03;;
10985;SDS011;5546;48.714;8.738;2023-04-06T03:42:46;7.40;;;5.90;;
10985;SDS011;5546;48.714;8.738;2023-04-06T03:45:12;13.57;;;6.57;;
10985;SDS011;5546;48.714;8.738;2023-04-06T03:47:38;6.43;;;5.53;;
10985;SDS011;5546;48.714;8.738;2023-04-06T03:50:04;7.73;;;5.57;;
10985;SDS011;5546;48.714;8.738;2023-04-06T03:52:31;8.20;;;5.90;;
10985;SDS011;5546;48.714;8.738;2023-04-06T03:54:56;6.30;;;5.47;;
10985;SDS011;5546;48.714;8.738;2023-04-06T03:57:22;7.63;;;6.00;;
10985;SDS011;5546;48.714;8.738;2023-04-06T03:59:48;6.73;;;5.83;;
10985;SDS011;5546;48.714;8.738;2023-04-06T04:02:14;10.60;;;6.20;;
10985;SDS011;5546;48.714;8.738;2023-04-06T04:04:40;6.60;;;5.83;;
10985;SDS011;5546;48.714;8.738;2023-04-06T04:07:06;8.30;;;6.23;;
10985;SDS011;5546;48.714;8.738;2023-04-06T04:09:32;7.73;;;6.17;;
10985;SDS011;5546;48.714;8.738;2023-04-06T04:11:58;9.03;;;5.83;;
10985;SDS011;5546;48.714;8.738;2023-04-06T04:14:24;8.70;;;5.80;;
10985;SDS011;5546;48.714;8.738;2023-04-06T04:16:50;7.90;;;5.77;;
10985;SDS011;5546;48.714;8.738;2023-04-06T04:19:16;6.63;;;5.57;;
10985;SDS011;5546;48.714;8.738;2023-04-06T04:21:43;7.47;;;5.97;;
10985;SDS011;5546;48.714;8.738;2023-04-06T04:24:10;8.80;;;5.80;;
10985;SDS011;5546;48.714;8.738;2023-04-06T04:26:36;8.23;;;6.47;;
10985;SDS011;5546;48.714;8.738;2023-04-06T04:29:03;8.93;;;6.17;;
10985;SDS011;5546;48.714;8.738;2023-04-06T04:31:28;8.47;;;6.20;;
10985;SDS011;5546;48.714;8.738;2023-04-06T04:33:54;9.37;;;6.20;;
10985;SDS011;5546;48.714;8.738;2023-04-06T04:36:20;8.50;;;6.33;;
10985;SDS011;5546;48.714;8.738;2023-04-06T04:38:46;8.27;;;5.37;;
10985;SDS011;5546;48.714;8.738;2023-04-06T04:41:12;5.87;;;5.23;;
10985;SDS011;5546;48.714;8.738;2023-04-06T04:43:38;11.30;;;6.37;;
10985;SDS011;5546;48.714;8.738;2023-04-06T04:46:04;7.97;;;6.10;;
10985;SDS011;5546;48.714;8.738;2023-04-06T04:48:31;8.53;;;6.60;;
10985;SDS011;5546;48.714;8.738;2023-04-06T04:50:57;8.70;;;6.63;;
10985;SDS011;5546;48.714;8.738;2023-04-06T04:53:22;8.33;;;6.43;;
10985;SDS011;5546;48.714;8.738;2023-04-06T04:55:48;7.27;;;5.83;;
10985;SDS011;5546;48.714;8.738;2023-04-06T04:58:14;8.73;;;6.83;;
10985;SDS011;5546;48.714;8.738;2023-04-06T05:00:42;12.27;;;7.07;;
10985;SDS011;5546;48.714;8.738;2023-04-06T05:03:08;7.60;;;6.80;;
10985;SDS011;5546;48.714;8.738;2023-04-06T05:05:34;8.80;;;6.30;;
10985;SDS011;5546;48.714;8.738;2023-04-06T05:08:01;9.50;;;6.33;;
10985;SDS011;5546;48.714;8.738;2023-04-06T05:10:26;8.97;;;6.17;;
10985;SDS011;5546;48.714;8.738;2023-04-06T05:12:52;7.53;;;6.30;;
10985;SDS011;5546;48.714;8.738;2023-04-06T05:15:18;10.30;;;6.77;;
10985;SDS011;5546;48.714;8.738;2023-04-06T05:17:44;11.13;;;6.23;;
10985;SDS011;5546;48.714;8.738;2023-04-06T05:20:10;9.70;;;6.83;;
10985;SDS011;5546;48.714;8.738;2023-04-06T05:22:36;8.43;;;6.47;;
10985;SDS011;5546;48.714;8.738;2023-04-06T05:25:02;10.83;;;8.10;;
10985;SDS011;5546;48.714;8.738;2023-04-06T05:27:28;12.63;;;8.57;;
10985;SDS011;5546;48.714;8.738;2023-04-06T05:29:54;9.63;;;7.20;;
10985;SDS011;5546;48.714;8.738;2023-04-06T05:32:20;10.77;;;7.80;;
10985;SDS011;5546;48.714;8.738;2023-04-06T05:34:48;8.70;;;6.73;;
10985;SDS011;5546;48.714;8.738;2023-04-06T05:37:14;10.87;;;7.33;;
10985;SDS011;5546;48.714;8.738;2023-04-06T05:39:40;8.57;;;6.20;;
10985;SDS011;5546;48.714;8.738;2023-04-06T05:42:07;8.73;;;6.53;;
10985;SDS011;5546;48.714;8.738;2023-04-06T05:44:32;8.07;;;5.43;;
10985;SDS011;5546;48.714;8.738;2023-04-06T05:46:58;6.63;;;5.90;;
10985;SDS011;5546;48.714;8.738;2023-04-06T05:49:24;5.83;;;5.17;;
10985;SDS011;5546;48.714;8.738;2023-04-06T05:51:50;6.17;;;5.20;;
10985;SDS011;5546;48.714;8.738;2023-04-06T05:54:16;6.73;;;5.23;;
10985;SDS011;5546;48.714;8.738;2023-04-06T05:56:42;6.70;;;5.10;;
10985;SDS011;5546;48.714;8.738;2023-04-06T05:59:08;5.33;;;4.70;;
10985;SDS011;5546;48.714;8.738;2023-04-06T06:01:34;5.33;;;4.57;;
10985;SDS011;5546;48.714;8.738;2023-04-06T06:04:01;4.50;;;4.03;;
10985;SDS011;5546;48.714;8.738;2023-04-06T06:06:27;5.57;;;4.87;;
10985;SDS011;5546;48.714;8.738;2023-04-06T06:08:55;6.10;;;4.67;;
10985;SDS011;5546;48.714;8.738;2023-04-06T06:11:24;5.40;;;4.50;;
10985;SDS011;5546;48.714;8.738;2023-04-06T06:13:50;6.37;;;5.20;;
10985;SDS011;5546;48.714;8.738;2023-04-06T06:16:16;7.07;;;4.37;;
10985;SDS011;5546;48.714;8.738;2023-04-06T06:18:43;6.80;;;4.53;;
10985;SDS011;5546;48.714;8.738;2023-04-06T06:21:08;5.30;;;4.80;;
10985;SDS011;5546;48.714;8.738;2023-04-06T06:23:36;7.10;;;5.10;;
10985;SDS011;5546;48.714;8.738;2023-04-06T06:26:02;4.90;;;4.40;;
10985;SDS011;5546;48.714;8.738;2023-04-06T06:28:28;6.27;;;4.97;;
10985;SDS011;5546;48.714;8.738;2023-04-06T06:30:54;6.30;;;4.93;;
10985;SDS011;5546;48.714;8.738;2023-04-06T06:33:20;10.57;;;4.40;;
10985;SDS011;5546;48.714;8.738;2023-04-06T06:35:46;5.17;;;4.40;;
10985;SDS011;5546;48.714;8.738;2023-04-06T06:38:12;5.33;;;4.80;;
10985;SDS011;5546;48.714;8.738;2023-04-06T06:40:39;6.30;;;5.20;;
10985;SDS011;5546;48.714;8.738;2023-04-06T06:43:05;6.17;;;4.97;;
10985;SDS011;5546;48.714;8.738;2023-04-06T06:45:31;4.97;;;4.30;;
10985;SDS011;5546;48.714;8.738;2023-04-06T06:47:56;7.97;;;4.60;;
10985;SDS011;5546;48.714;8.738;2023-04-06T06:50:22;7.27;;;5.43;;
10985;SDS011;5546;48.714;8.738;2023-04-06T06:52:47;7.20;;;5.40;;
10985;SDS011;5546;48.714;8.738;2023-04-06T06:55:13;7.30;;;5.60;;
10985;SDS011;5546;48.714;8.738;2023-04-06T06:57:39;9.07;;;5.20;;
10985;SDS011;5546;48.714;8.738;2023-04-06T07:00:05;5.47;;;4.80;;
10985;SDS011;5546;48.714;8.738;2023-04-06T07:02:33;6.67;;;5.10;;
10985;SDS011;5546;48.714;8.738;2023-04-06T07:05:00;5.80;;;5.20;;
10985;SDS011;5546;48.714;8.738;2023-04-06T07:07:26;7.53;;;5.00;;
10985;SDS011;5546;48.714;8.738;2023-04-06T07:09:52;5.57;;;4.80;;
10985;SDS011;5546;48.714;8.738;2023-04-06T07:12:17;5.77;;;4.90;;
10985;SDS011;5546;48.714;8.738;2023-04-06T07:14:43;7.13;;;5.30;;
10985;SDS011;5546;48.714;8.738;2023-04-06T07:17:09;8.33;;;5.13;;
10985;SDS011;5546;48.714;8.738;2023-04-06T07:19:35;8.13;;;5.13;;
10985;SDS011;5546;48.714;8.738;2023-04-06T07:22:00;5.70;;;5.10;;
10985;SDS011;5546;48.714;8.738;2023-04-06T07:24:28;7.80;;;6.10;;
10985;SDS011;5546;48.714;8.738;2023-04-06T07:26:53;6.30;;;5.30;;
10985;SDS011;5546;48.714;8.738;2023-04-06T07:29:20;6.90;;;5.13;;
10985;SDS011;5546;48.714;8.738;2023-04-06T07:31:46;6.83;;;5.20;;
10985;SDS011;5546;48.714;8.738;2023-04-06T07:34:11;7.63;;;5.53;;
10985;SDS011;5546;48.714;8.738;2023-04-06T07:36:37;10.30;;;5.60;;
10985;SDS011;5546;48.714;8.738;2023-04-06T07:39:03;7.63;;;5.60;;
10985;SDS011;5546;48.714;8.738;2023-04-06T07:41:28;7.07;;;5.37;;
10985;SDS011;5546;48.714;8.738;2023-04-06T07:43:54;6.40;;;4.80;;
10985;SDS011;5546;48.714;8.738;2023-04-06T07:46:20;5.97;;;5.37;;
10985;SDS011;5546;48.714;8.738;2023-04-06T07:48:46;6.93;;;5.57;;
10985;SDS011;5546;48.714;8.738;2023-04-06T07:51:11;7.67;;;5.20;;
10985;SDS011;5546;48.714;8.738;2023-04-06T07:53:39;7.47;;;5.60;;
10985;SDS011;5546;48.714;8.738;2023-04-06T07:56:05;8.60;;;5.28;;
10985;SDS011;5546;48.714;8.738;2023-04-06T07:58:31;5.50;;;4.90;;
10985;SDS011;5546;48.714;8.738;2023-04-06T08:00:56;6.60;;;5.45;;
10985;SDS011;5546;48.714;8.738;2023-04-06T08:03:22;6.45;;;5.57;;
10985;SDS011;5546;48.714;8.738;2023-04-06T08:05:50;9.00;;;7.05;;
10985;SDS011;5546;48.714;8.738;2023-04-06T08:08:17;10.30;;;7.10;;
10985;SDS011;5546;48.714;8.738;2023-04-06T08:10:43;14.57;;;10.38;;
10985;SDS011;5546;48.714;8.738;2023-04-06T08:13:08;15.15;;;11.38;;
10985;SDS011;5546;48.714;8.738;2023-04-06T08:15:35;11.55;;;9.52;;
10985;SDS011;5546;48.714;8.738;2023-04-06T08:18:00;13.25;;;10.30;;
10985;SDS011;5546;48.714;8.738;2023-04-06T08:20:26;12.70;;;10.10;;
10985;SDS011;5546;48.714;8.738;2023-04-06T08:22:52;12.35;;;9.52;;
10985;SDS011;5546;48.714;8.738;2023-04-06T08:25:17;9.27;;;8.13;;
10985;SDS011;5546;48.714;8.738;2023-04-06T08:27:43;10.13;;;7.57;;
10985;SDS011;5546;48.714;8.738;2023-04-06T08:30:08;10.13;;;7.50;;
10985;SDS011;5546;48.714;8.738;2023-04-06T08:32:34;9.63;;;8.30;;
10985;SDS011;5546;48.714;8.738;2023-04-06T08:35:00;12.07;;;8.57;;
10985;SDS011;5546;48.714;8.738;2023-04-06T08:37:26;8.82;;;7.90;;
10985;SDS011;5546;48.714;8.738;2023-04-06T08:39:52;9.90;;;7.90;;
10985;SDS011;5546;48.714;8.738;2023-04-06T08:42:21;8.48;;;7.57;;
10985;SDS011;5546;48.714;8.738;2023-04-06T08:44:49;8.32;;;7.50;;
10985;SDS011;5546;48.714;8.738;2023-04-06T08:47:17;7.22;;;6.53;;
10985;SDS011;5546;48.714;8.738;2023-04-06T08:49:43;7.70;;;6.53;;
10985;SDS011;5546;48.714;8.738;2023-04-06T08:52:10;8.98;;;6.90;;
10985;SDS011;5546;48.714;8.738;2023-04-06T08:54:36;7.55;;;6.75;;
10985;SDS011;5546;48.714;8.738;2023-04-06T08:57:03;6.80;;;5.97;;
10985;SDS011;5546;48.714;8.738;2023-04-06T08:59:29;8.70;;;6.15;;
10985;SDS011;5546;48.714;8.738;2023-04-06T09:01:56;8.50;;;7.60;;
10985;SDS011;5546;48.714;8.738;2023-04-06T09:04:22;8.13;;;7.32;;
10985;SDS011;5546;48.714;8.738;2023-04-06T09:06:48;7.55;;;6.72;;
10985;SDS011;5546;48.714;8.738;2023-04-06T09:09:14;8.57;;;6.80;;
10985;SDS011;5546;48.714;8.738;2023-04-06T09:14:09;8.93;;;7.15;;
10985;SDS011;5546;48.714;8.738;2023-04-06T09:16:41;13.25;;;7.05;;
10985;SDS011;5546;48.714;8.738;2023-04-06T09:19:08;7.40;;;6.65;;
10985;SDS011;5546;48.714;8.738;2023-04-06T09:21:34;7.15;;;6.30;;
10985;SDS011;5546;48.714;8.738;2023-04-06T09:24:01;7.50;;;6.75;;
10985;SDS011;5546;48.714;8.738;2023-04-06T09:26:27;7.80;;;6.95;;
10985;SDS011;5546;48.714;8.738;2023-04-06T09:28:54;7.47;;;6.68;;
10985;SDS011;5546;48.714;8.738;2023-04-06T09:31:24;7.40;;;6.63;;
10985;SDS011;5546;48.714;8.738;2023-04-06T09:33:51;7.88;;;6.60;;
10985;SDS011;5546;48.714;8.738;2023-04-06T09:36:17;7.88;;;6.63;;
10985;SDS011;5546;48.714;8.738;2023-04-06T09:38:57;6.93;;;6.28;;
10985;SDS011;5546;48.714;8.738;2023-04-06T09:41:27;7.10;;;6.40;;
10985;SDS011;5546;48.714;8.738;2023-04-06T09:46:37;6.90;;;6.25;;
10985;SDS011;5546;48.714;8.738;2023-04-06T09:49:04;7.80;;;6.10;;
10985;SDS011;5546;48.714;8.738;2023-04-06T09:51:31;8.60;;;6.65;;
10985;SDS011;5546;48.714;8.738;2023-04-06T09:54:02;7.95;;;6.03;;
10985;SDS011;5546;48.714;8.738;2023-04-06T09:59:15;11.32;;;10.23;;
10985;SDS011;5546;48.714;8.738;2023-04-06T10:02:00;7.35;;;6.43;;
10985;SDS011;5546;48.714;8.738;2023-04-06T10:07:01;6.80;;;6.13;;
10985;SDS011;5546;48.714;8.738;2023-04-06T10:09:29;7.57;;;6.78;;
10985;SDS011;5546;48.714;8.738;2023-04-06T10:12:02;8.45;;;7.40;;
10985;SDS011;5546;48.714;8.738;2023-04-06T10:14:28;7.75;;;6.93;;
10985;SDS011;5546;48.714;8.738;2023-04-06T10:16:56;8.18;;;6.72;;
10985;SDS011;5546;48.714;8.738;2023-04-06T10:19:24;7.57;;;6.82;;
10985;SDS011;5546;48.714;8.738;2023-04-06T10:21:54;7.25;;;6.55;;
10985;SDS011;5546;48.714;8.738;2023-04-06T10:24:22;7.18;;;6.47;;
10985;SDS011;5546;48.714;8.738;2023-04-06T10:27:00;7.28;;;6.57;;
10985;SDS011;5546;48.714;8.738;2023-04-06T10:29:27;6.97;;;6.32;;
10985;SDS011;5546;48.714;8.738;2023-04-06T10:31:53;8.00;;;7.20;;
10985;SDS011;5546;48.714;8.738;2023-04-06T10:34:20;7.95;;;5.90;;
10985;SDS011;5546;48.714;8.738;2023-04-06T10:36:46;8.48;;;6.22;;
10985;SDS011;5546;48.714;8.738;2023-04-06T10:39:11;8.73;;;6.20;;
10985;SDS011;5546;48.714;8.738;2023-04-06T10:41:41;6.68;;;5.97;;
10985;SDS011;5546;48.714;8.738;2023-04-06T10:44:08;7.15;;;6.13;;
10985;SDS011;5546;48.714;8.738;2023-04-06T10:46:42;7.20;;;5.90;;
10985;SDS011;5546;48.714;8.738;2023-04-06T10:49:28;6.75;;;6.05;;
10985;SDS011;5546;48.714;8.738;2023-04-06T10:51:54;6.72;;;6.03;;
10985;SDS011;5546;48.714;8.738;2023-04-06T10:54:21;6.63;;;6.00;;
10985;SDS011;5546;48.714;8.738;2023-04-06T10:56:48;6.72;;;5.95;;
10985;SDS011;5546;48.714;8.738;2023-04-06T10:59:18;10.07;;;6.65;;
10985;SDS011;5546;48.714;8.738;2023-04-06T11:01:45;7.30;;;6.60;;
10985;SDS011;5546;48.714;8.738;2023-04-06T11:04:15;6.65;;;5.28;;
10985;SDS011;5546;48.714;8.738;2023-04-06T11:06:41;6.72;;;5.95;;
10985;SDS011;5546;48.714;8.738;2023-04-06T11:09:22;7.63;;;6.53;;
10985;SDS011;5546;48.714;8.738;2023-04-06T11:11:56;7.93;;;6.00;;
10985;SDS011;5546;48.714;8.738;2023-04-06T11:14:22;7.28;;;6.00;;
10985;SDS011;5546;48.714;8.738;2023-04-06T11:16:48;7.25;;;5.50;;
10985;SDS011;5546;48.714;8.738;2023-04-06T11:19:16;7.57;;;6.00;;
10985;SDS011;5546;48.714;8.738;2023-04-06T11:21:43;6.80;;;5.90;;
10985;SDS011;5546;48.714;8.738;2023-04-06T11:24:22;6.65;;;5.70;;
10985;SDS011;5546;48.714;8.738;2023-04-06T11:26:50;5.80;;;5.20;;
10985;SDS011;5546;48.714;8.738;2023-04-06T11:29:20;6.22;;;5.60;;
10985;SDS011;5546;48.714;8.738;2023-04-06T11:31:48;6.50;;;5.75;;
10985;SDS011;5546;48.714;8.738;2023-04-06T11:34:19;6.78;;;6.07;;
10985;SDS011;5546;48.714;8.738;2023-04-06T11:36:46;6.20;;;5.60;;
10985;SDS011;5546;48.714;8.738;2023-04-06T11:39:13;6.13;;;5.40;;
10985;SDS011;5546;48.714;8.738;2023-04-06T11:41:49;6.53;;;5.82;;
10985;SDS011;5546;48.714;8.738;2023-04-06T11:44:37;7.93;;;5.40;;
10985;SDS011;5546;48.714;8.738;2023-04-06T11:47:14;6.70;;;5.55;;
10985;SDS011;5546;48.714;8.738;2023-04-06T11:49:41;6.03;;;5.18;;
10985;SDS011;5546;48.714;8.738;2023-04-06T11:52:16;6.72;;;6.03;;
10985;SDS011;5546;48.714;8.738;2023-04-06T11:54:43;5.72;;;4.90;;
10985;SDS011;5546;48.714;8.738;2023-04-06T11:57:09;7.13;;;5.22;;
10985;SDS011;5546;48.714;8.738;2023-04-06T11:59:35;5.80;;;5.18;;
10985;SDS011;5546;48.714;8.738;2023-04-06T12:02:01;6.70;;;5.40;;
10985;SDS011;5546;48.714;8.738;2023-04-06T12:04:27;6.55;;;5.32;;
10985;SDS011;5546;48.714;8.738;2023-04-06T12:06:53;5.35;;;4.85;;
10985;SDS011;5546;48.714;8.738;2023-04-06T12:09:19;6.35;;;5.13;;
10985;SDS011;5546;48.714;8.738;2023-04-06T12:11:46;7.50;;;6.13;;
10985;SDS011;5546;48.714;8.738;2023-04-06T12:14:12;6.03;;;5.43;;
10985;SDS011;5546;48.714;8.738;2023-04-06T12:16:38;6.97;;;5.32;;
10985;SDS011;5546;48.714;8.738;2023-04-06T12:19:04;7.40;;;4.90;;
10985;SDS011;5546;48.714;8.738;2023-04-06T12:21:30;6.13;;;5.40;;
10985;SDS011;5546;48.714;8.738;2023-04-06T12:23:57;6.88;;;5.68;;
10985;SDS011;5546;48.714;8.738;2023-04-06T12:26:23;6.90;;;5.50;;
10985;SDS011;5546;48.714;8.738;2023-04-06T12:28:49;7.28;;;5.30;;
10985;SDS011;5546;48.714;8.738;2023-04-06T12:31:15;6.50;;;5.10;;
10985;SDS011;5546;48.714;8.738;2023-04-06T12:33:41;5.72;;;5.05;;
10985;SDS011;5546;48.714;8.738;2023-04-06T12:36:20;6.32;;;5.35;;
10985;SDS011;5546;48.714;8.738;2023-04-06T12:38:49;6.68;;;5.65;;
10985;SDS011;5546;48.714;8.738;2023-04-06T12:41:16;6.22;;;4.88;;
10985;SDS011;5546;48.714;8.738;2023-04-06T12:43:42;6.55;;;5.60;;
10985;SDS011;5546;48.714;8.738;2023-04-06T12:46:08;5.95;;;5.35;;
10985;SDS011;5546;48.714;8.738;2023-04-06T12:48:35;6.88;;;5.38;;
10985;SDS011;5546;48.714;8.738;2023-04-06T12:51:01;7.28;;;4.85;;
10985;SDS011;5546;48.714;8.738;2023-04-06T12:53:29;5.57;;;5.03;;
10985;SDS011;5546;48.714;8.738;2023-04-06T12:55:55;7.32;;;5.10;;
10985;SDS011;5546;48.714;8.738;2023-04-06T12:58:22;5.75;;;5.00;;
10985;SDS011;5546;48.714;8.738;2023-04-06T13:00:48;5.95;;;5.03;;
10985;SDS011;5546;48.714;8.738;2023-04-06T13:03:15;5.75;;;4.95;;
10985;SDS011;5546;48.714;8.738;2023-04-06T13:05:44;6.55;;;4.70;;
10985;SDS011;5546;48.714;8.738;2023-04-06T13:08:11;7.72;;;4.43;;
10985;SDS011;5546;48.714;8.738;2023-04-06T13:10:37;6.97;;;5.28;;
10985;SDS011;5546;48.714;8.738;2023-04-06T13:13:03;7.43;;;5.43;;
10985;SDS011;5546;48.714;8.738;2023-04-06T13:15:28;5.97;;;5.10;;
10985;SDS011;5546;48.714;8.738;2023-04-06T13:17:54;6.47;;;5.10;;
10985;SDS011;5546;48.714;8.738;2023-04-06T13:20:20;5.80;;;4.57;;
10985;SDS011;5546;48.714;8.738;2023-04-06T13:22:46;5.90;;;4.90;;
10985;SDS011;5546;48.714;8.738;2023-04-06T13:25:12;6.87;;;4.67;;
10985;SDS011;5546;48.714;8.738;2023-04-06T13:27:38;6.27;;;5.20;;
10985;SDS011;5546;48.714;8.738;2023-04-06T13:30:04;6.97;;;4.83;;
10985;SDS011;5546;48.714;8.738;2023-04-06T13:32:31;5.97;;;4.73;;
10985;SDS011;5546;48.714;8.738;2023-04-06T13:34:57;4.93;;;4.40;;
10985;SDS011;5546;48.714;8.738;2023-04-06T13:37:23;5.57;;;4.60;;
10985;SDS011;5546;48.714;8.738;2023-04-06T13:39:48;6.55;;;4.30;;
10985;SDS011;5546;48.714;8.738;2023-04-06T13:42:14;5.13;;;4.32;;
10985;SDS011;5546;48.714;8.738;2023-04-06T13:44:40;5.93;;;4.97;;
10985;SDS011;5546;48.714;8.738;2023-04-06T13:47:06;6.00;;;4.85;;
10985;SDS011;5546;48.714;8.738;2023-04-06T13:49:31;10.95;;;8.02;;
10985;SDS011;5546;48.714;8.738;2023-04-06T13:51:57;7.00;;;5.20;;
10985;SDS011;5546;48.714;8.738;2023-04-06T13:54:23;5.93;;;4.60;;
10985;SDS011;5546;48.714;8.738;2023-04-06T13:56:51;6.35;;;4.97;;
10985;SDS011;5546;48.714;8.738;2023-04-06T13:59:16;6.45;;;5.57;;
10985;SDS011;5546;48.714;8.738;2023-04-06T14:01:42;5.67;;;4.90;;
10985;SDS011;5546;48.714;8.738;2023-04-06T14:04:08;6.47;;;4.57;;
10985;SDS011;5546;48.714;8.738;2023-04-06T14:06:34;5.40;;;4.80;;
10985;SDS011;5546;48.714;8.738;2023-04-06T14:09:00;6.10;;;4.53;;
10985;SDS011;5546;48.714;8.738;2023-04-06T14:11:26;5.90;;;4.87;;
10985;SDS011;5546;48.714;8.738;2023-04-06T14:13:52;5.00;;;4.40;;
10985;SDS011;5546;48.714;8.738;2023-04-06T14:16:17;6.80;;;4.57;;
10985;SDS011;5546;48.714;8.738;2023-04-06T14:18:44;6.63;;;4.40;;
10985;SDS011;5546;48.714;8.738;2023-04-06T14:21:10;6.47;;;4.60;;
10985;SDS011;5546;48.714;8.738;2023-04-06T14:23:36;6.70;;;4.60;;
10985;SDS011;5546;48.714;8.738;2023-04-06T14:26:06;5.30;;;4.57;;
10985;SDS011;5546;48.714;8.738;2023-04-06T14:28:33;6.10;;;4.43;;
10985;SDS011;5546;48.714;8.738;2023-04-06T14:31:00;5.60;;;4.97;;
10985;SDS011;5546;48.714;8.738;2023-04-06T14:33:27;5.87;;;4.67;;
10985;SDS011;5546;48.714;8.738;2023-04-06T14:35:54;5.77;;;4.60;;
10985;SDS011;5546;48.714;8.738;2023-04-06T14:38:20;6.30;;;4.90;;
10985;SDS011;5546;48.714;8.738;2023-04-06T14:40:46;5.97;;;4.60;;
10985;SDS011;5546;48.714;8.738;2023-04-06T14:43:12;6.90;;;4.60;;
10985;SDS011;5546;48.714;8.738;2023-04-06T14:45:38;6.20;;;4.47;;
10985;SDS011;5546;48.714;8.738;2023-04-06T14:48:04;6.17;;;4.93;;
10985;SDS011;5546;48.714;8.738;2023-04-06T14:50:36;7.80;;;4.50;;
10985;SDS011;5546;48.714;8.738;2023-04-06T14:53:02;5.60;;;4.17;;
10985;SDS011;5546;48.714;8.738;2023-04-06T14:55:28;5.30;;;4.30;;
10985;SDS011;5546;48.714;8.738;2023-04-06T14:57:54;5.17;;;4.07;;
10985;SDS011;5546;48.714;8.738;2023-04-06T15:00:20;5.83;;;3.90;;
10985;SDS011;5546;48.714;8.738;2023-04-06T15:02:46;4.30;;;3.87;;
10985;SDS011;5546;48.714;8.738;2023-04-06T15:05:12;5.97;;;4.60;;
10985;SDS011;5546;48.714;8.738;2023-04-06T15:07:38;7.03;;;4.20;;